Time;durP1;ratioP1;P1;durP2;ratioP2;P2;SDS_P1;SDS_P2;PMS_P1;PMS_P2;Temp;Humidity;BMP_temperature;BMP_pressure;BME280_temperature;BME280_humidity;BME280_pressure;Samples;Min_cycle;Max_cycle;Signal;HPM_P1;HPM_P2
2021/12/10 00:00:14;;;;;;;33.57;25.03;;;;;;;7.39;65.89;93633.47;5064745;28;20405;-73
2021/12/10 00:02:45;;;;;;;35.60;24.90;;;;;;;7.46;65.80;93646.50;5064863;28;20455;-73
2021/12/10 00:05:14;;;;;;;35.10;23.80;;;;;;;7.53;65.37;93646.50;5064943;28;20390;-73
2021/12/10 00:07:40;;;;;;;35.90;26.33;;;;;;;7.42;65.82;93637.50;5064739;28;20452;-74
2021/12/10 00:10:09;;;;;;;34.70;27.33;;;;;;;7.32;66.60;93622.28;5064643;28;20467;-73
2021/12/10 00:12:41;;;;;;;36.77;26.43;;;;;;;7.28;66.57;93615.84;5063435;28;20472;-74
2021/12/10 00:15:07;;;;;;;41.70;27.30;;;;;;;7.91;63.81;93615.44;5064765;28;20746;-74
2021/12/10 00:17:33;;;;;;;37.87;26.97;;;;;;;7.74;64.17;93619.44;5065163;28;20480;-73
2021/12/10 00:20:01;;;;;;;33.43;25.60;;;;;;;7.85;64.74;93621.44;5068764;28;20564;-73
2021/12/10 00:22:37;;;;;;;33.67;25.27;;;;;;;7.88;63.51;93625.47;5068833;28;20413;-74
2021/12/10 00:25:09;;;;;;;37.50;28.10;;;;;;;7.55;65.54;93615.84;5068612;28;20389;-73
2021/12/10 00:27:35;;;;;;;35.30;29.47;;;;;;;7.53;66.09;93604.84;5068615;28;20787;-73
2021/12/10 00:30:09;;;;;;;47.70;37.53;;;;;;;7.47;65.63;93603.84;5067300;28;20432;-74
2021/12/10 00:32:40;;;;;;;51.50;35.43;;;;;;;7.52;65.91;93619.66;5068496;28;20461;-73
2021/12/10 00:35:11;;;;;;;38.50;30.67;;;;;;;7.77;64.91;93619.06;5068358;28;20496;-73
2021/12/10 00:37:37;;;;;;;42.73;33.17;;;;;;;8.02;63.76;93617.41;5068376;28;20865;-73
2021/12/10 00:40:06;;;;;;;40.67;30.40;;;;;;;7.90;64.93;93616.44;5068329;28;20559;-74
2021/12/10 00:42:34;;;;;;;40.37;30.73;;;;;;;7.50;65.87;93608.66;5068269;28;20492;-74
2021/12/10 00:45:04;;;;;;;45.77;35.83;;;;;;;7.92;64.71;93611.03;5068078;28;20413;-74
2021/12/10 00:47:30;;;;;;;39.17;32.20;;;;;;;7.37;66.62;93614.66;5067314;28;20417;-74
2021/12/10 00:49:56;;;;;;;33.23;24.17;;;;;;;7.07;67.97;93610.84;5068241;28;20420;-73
2021/12/10 00:52:22;;;;;;;21.40;18.80;;;;;;;7.34;66.73;93601.25;5069362;28;20209;-73
2021/12/10 00:54:49;;;;;;;22.83;18.60;;;;;;;7.47;66.71;93588.22;5070764;28;20815;-73
2021/12/10 00:57:15;;;;;;;24.53;17.97;;;;;;;7.54;66.09;93599.44;5069170;28;20416;-73
2021/12/10 00:59:43;;;;;;;21.83;17.53;;;;;;;7.51;67.18;93607.69;5069134;28;20428;-74
2021/12/10 01:02:12;;;;;;;22.60;19.80;;;;;;;7.56;66.46;93584.41;5068821;28;20417;-74
2021/12/10 01:04:41;;;;;;;22.57;18.37;;;;;;;7.55;66.70;93589.81;5069408;28;20416;-74
2021/12/10 01:07:13;;;;;;;23.57;17.60;;;;;;;7.56;67.38;93594.03;5068488;28;20412;-75
2021/12/10 01:09:44;;;;;;;25.10;19.10;;;;;;;7.59;67.41;93602.25;5068163;28;20726;-74
2021/12/10 01:12:15;;;;;;;20.63;17.80;;;;;;;7.62;66.74;93595.84;5068563;28;20522;-74
2021/12/10 01:28:47;;;;;;;29.43;21.47;;;;;;;7.78;66.96;93579.78;5069297;28;20412;-74
2021/12/10 01:31:13;;;;;;;28.73;20.40;;;;;;;7.54;67.60;93575.22;5069580;28;20393;-74
2021/12/10 01:33:41;;;;;;;27.60;20.77;;;;;;;7.86;66.58;93563.16;5069615;28;20432;-74
2021/12/10 01:36:08;;;;;;;28.37;22.00;;;;;;;7.71;66.70;93573.00;5069471;28;20175;-73
2021/12/10 01:38:36;;;;;;;30.20;19.30;;;;;;;7.83;66.53;93560.94;5069586;28;20424;-74
2021/12/10 01:41:07;;;;;;;26.80;20.70;;;;;;;7.75;66.73;93564.56;5068694;28;20416;-74
2021/12/10 01:43:35;;;;;;;25.80;20.90;;;;;;;7.84;67.53;93556.56;5069028;28;20417;-74
2021/12/10 01:46:09;;;;;;;26.10;18.77;;;;;;;7.76;67.36;93560.19;5068498;28;20413;-73
2021/12/10 01:48:40;;;;;;;26.30;18.90;;;;;;;8.21;65.73;93562.81;5067669;28;20421;-73
2021/12/10 01:51:07;;;;;;;29.17;20.63;;;;;;;8.10;66.53;93566.06;5068718;28;20389;-74
2021/12/10 01:53:37;;;;;;;25.80;20.23;;;;;;;8.16;66.51;93549.63;5069101;28;20421;-74
2021/12/10 01:56:09;;;;;;;21.93;19.17;;;;;;;8.30;65.10;93552.97;5068331;28;20400;-74
2021/12/10 01:58:34;;;;;;;27.67;18.70;;;;;;;7.93;67.17;93553.53;5069780;28;20417;-74
2021/12/10 02:01:05;;;;;;;25.20;20.33;;;;;;;7.59;68.92;93549.41;5069533;28;20926;-74
2021/12/10 02:03:31;;;;;;;22.53;17.07;;;;;;;7.62;69.05;93544.56;5069765;28;20191;-74
2021/12/10 02:05:57;;;;;;;20.80;15.30;;;;;;;7.75;68.21;93537.75;5068780;28;20421;-74
2021/12/10 02:08:23;;;;;;;30.30;20.87;;;;;;;7.72;68.13;93543.34;5068373;28;20428;-73
2021/12/10 02:10:48;;;;;;;33.37;21.47;;;;;;;7.55;68.64;93549.00;5067716;28;20413;-74
2021/12/10 02:13:15;;;;;;;27.33;21.00;;;;;;;7.26;70.65;93539.81;5068560;28;20202;-74
2021/12/10 02:15:41;;;;;;;27.67;21.93;;;;;;;7.47;70.11;93528.38;5068994;28;20171;-75
2021/12/10 02:18:09;;;;;;;30.03;20.70;;;;;;;7.73;69.83;93527.53;5067516;28;20502;-74
2021/12/10 02:20:45;;;;;;;29.23;22.20;;;;;;;7.79;69.19;93511.06;5067842;28;20413;-74
2021/12/10 02:23:11;;;;;;;30.10;21.50;;;;;;;7.75;69.78;93516.91;5066570;28;20416;-73
2021/12/10 02:25:37;;;;;;;31.50;22.83;;;;;;;7.90;69.62;93504.44;5068209;28;20409;-73
2021/12/10 02:28:04;;;;;;;24.20;19.13;;;;;;;8.11;69.06;93505.16;5067897;28;20174;-74
2021/12/10 02:30:30;;;;;;;21.87;18.93;;;;;;;8.24;67.55;93504.31;5067899;28;20401;-74
2021/12/10 02:32:57;;;;;;;25.57;18.13;;;;;;;7.79;68.76;93507.66;5068415;28;20862;-73
2021/12/10 02:35:23;;;;;;;24.93;19.27;;;;;;;7.73;68.73;93509.28;5065248;28;20177;-73
2021/12/10 02:37:48;;;;;;;21.53;18.13;;;;;;;7.68;69.72;93511.69;5064756;28;20425;-73
2021/12/10 02:40:18;;;;;;;22.67;18.90;;;;;;;7.65;69.07;93524.34;5065923;28;20174;-73
2021/12/10 02:42:45;;;;;;;25.27;18.33;;;;;;;7.72;68.91;93530.31;5066021;28;20420;-73
2021/12/10 02:45:15;;;;;;;20.40;17.00;;;;;;;7.53;70.21;93543.19;5065717;28;20409;-74
2021/12/10 02:47:41;;;;;;;19.30;14.37;;;;;;;7.79;69.28;93550.13;5065682;28;20464;-73
2021/12/10 02:50:09;;;;;;;23.70;15.97;;;;;;;7.71;70.31;93541.75;5065789;28;20413;-73
2021/12/10 02:52:34;;;;;;;23.10;18.00;;;;;;;7.79;69.42;93544.13;5064168;28;20488;-73
2021/12/10 02:55:00;;;;;;;19.87;17.07;;;;;;;7.86;69.47;93544.13;5064425;28;20511;-73
2021/12/10 02:57:27;;;;;;;23.40;16.97;;;;;;;7.93;69.50;93547.50;5065350;28;20174;-73
2021/12/10 02:59:53;;;;;;;24.80;17.57;;;;;;;7.92;69.78;93543.31;5065498;28;20162;-73
2021/12/10 03:02:23;;;;;;;26.47;17.47;;;;;;;7.91;69.10;93544.28;5065295;28;20522;-74
2021/12/10 03:04:50;;;;;;;21.87;16.83;;;;;;;8.13;68.51;93539.63;5065584;28;20496;-73
2021/12/10 03:07:18;;;;;;;21.50;15.80;;;;;;;8.46;66.81;93541.28;5065421;28;20421;-73
2021/12/10 03:09:47;;;;;;;21.83;15.13;;;;;;;7.63;69.03;93534.97;5065207;28;20408;-72
2021/12/10 03:12:15;;;;;;;20.87;16.37;;;;;;;7.55;70.04;93527.34;5065077;28;20835;-72
2021/12/10 03:14:45;;;;;;;21.30;16.97;;;;;;;7.84;68.86;93531.31;5064958;28;20409;-72
2021/12/10 03:17:18;;;;;;;22.17;15.03;;;;;;;7.78;69.95;93537.34;5065295;28;20436;-72
2021/12/10 03:19:43;;;;;;;25.80;16.90;;;;;;;7.89;69.01;93534.09;5064508;28;20452;-72
2021/12/10 03:22:09;;;;;;;26.23;18.23;;;;;;;7.87;69.71;93536.09;5065061;28;20443;-72
2021/12/10 03:24:35;;;;;;;29.40;21.80;;;;;;;7.78;70.49;93532.13;5064955;28;20170;-72
2021/12/10 03:27:03;;;;;;;30.47;21.60;;;;;;;7.76;71.10;93528.94;5064877;28;20174;-72
2021/12/10 03:29:31;;;;;;;27.90;19.17;;;;;;;8.01;69.37;93521.22;5064655;28;20916;-72
2021/12/10 03:32:01;;;;;;;33.03;19.90;;;;;;;8.02;69.06;93522.81;5064571;28;20905;-72
2021/12/10 03:34:26;;;;;;;31.07;20.87;;;;;;;8.07;70.03;93522.22;5064566;28;20930;-72
2021/12/10 03:36:52;;;;;;;30.43;20.07;;;;;;;8.06;69.36;93520.59;5064817;28;20413;-73
2021/12/10 03:39:22;;;;;;;34.20;21.30;;;;;;;8.38;68.79;93521.47;5064739;28;20170;-72
2021/12/10 03:41:48;;;;;;;21.00;14.90;;;;;;;8.34;68.98;93531.50;5063335;28;20428;-72
2021/12/10 03:44:14;;;;;;;28.87;19.93;;;;;;;7.36;72.88;93534.19;5064655;28;20500;-72
2021/12/10 03:46:40;;;;;;;27.50;18.13;;;;;;;7.92;70.20;93543.31;5064579;28;20596;-72
2021/12/10 03:49:06;;;;;;;22.77;17.33;;;;;;;7.78;71.79;93545.16;5064693;28;20428;-72
2021/12/10 03:51:34;;;;;;;22.67;17.87;;;;;;;8.00;70.50;93536.03;5062825;28;20452;-72
2021/12/10 03:54:00;;;;;;;23.20;15.53;;;;;;;8.38;70.11;93544.91;5064113;28;20421;-72
2021/12/10 03:56:28;;;;;;;21.43;16.20;;;;;;;8.45;69.46;93547.53;5064282;28;20405;-72
2021/12/10 03:58:59;;;;;;;23.63;14.50;;;;;;;7.85;70.96;93551.13;5062983;28;20185;-71
2021/12/10 04:01:31;;;;;;;21.37;16.43;;;;;;;7.98;70.72;93543.25;5064371;28;20386;-72
2021/12/10 04:04:00;;;;;;;21.17;15.00;;;;;;;8.32;70.01;93549.16;5064562;28;20425;-72
2021/12/10 04:06:27;;;;;;;23.10;16.50;;;;;;;8.29;70.44;93544.38;5064332;28;20412;-72
2021/12/10 04:08:53;;;;;;;21.30;16.77;;;;;;;8.09;70.74;93525.41;5064366;28;20439;-72
2021/12/10 04:11:19;;;;;;;21.77;16.93;;;;;;;8.07;71.01;93523.00;5064148;28;20409;-72
2021/12/10 04:13:47;;;;;;;18.70;15.30;;;;;;;8.37;69.19;93532.91;5064098;28;20174;-73
2021/12/10 04:16:13;;;;;;;21.90;14.60;;;;;;;8.21;71.07;93541.97;5064243;28;20409;-72
2021/12/10 04:18:39;;;;;;;22.43;14.90;;;;;;;8.18;70.49;93539.81;5064319;28;20465;-72
2021/12/10 04:21:06;;;;;;;16.60;13.20;;;;;;;7.82;73.01;93543.72;5064812;28;20475;-72
2021/12/10 04:23:32;;;;;;;20.90;14.60;;;;;;;8.11;70.73;93541.63;5064431;28;20492;-72
2021/12/10 04:25:58;;;;;;;16.33;14.63;;;;;;;8.09;70.63;93541.84;5062956;28;20420;-72
2021/12/10 04:28:24;;;;;;;18.03;14.67;;;;;;;8.24;70.63;93546.78;5064402;28;20793;-71
2021/12/10 04:30:51;;;;;;;19.13;14.47;;;;;;;8.05;70.87;93543.25;5064174;28;20177;-72
2021/12/10 04:33:22;;;;;;;19.93;14.77;;;;;;;8.27;71.08;93541.19;5063248;28;20465;-72
2021/12/10 04:35:49;;;;;;;17.13;14.77;;;;;;;8.09;71.53;93549.66;5064685;28;20401;-72
2021/12/10 04:38:16;;;;;;;16.77;13.83;;;;;;;7.97;72.17;93554.72;5064570;28;20512;-73
2021/12/10 04:40:47;;;;;;;23.47;16.00;;;;;;;8.09;71.79;93559.28;5063000;28;20475;-72
2021/12/10 04:43:12;;;;;;;19.80;15.90;;;;;;;8.45;71.28;93558.75;5064328;28;20437;-72
2021/12/10 04:45:38;;;;;;;18.60;15.63;;;;;;;8.21;71.18;93558.44;5064051;28;20413;-73
2021/12/10 04:48:04;;;;;;;16.30;13.90;;;;;;;8.32;71.38;93554.38;5064259;28;20182;-72
2021/12/10 04:50:30;;;;;;;17.33;14.73;;;;;;;8.25;71.69;93558.00;5064026;28;20178;-72
2021/12/10 04:52:57;;;;;;;16.27;14.53;;;;;;;8.30;72.23;93552.97;5064147;28;20487;-72
2021/12/10 04:55:23;;;;;;;19.03;14.53;;;;;;;8.38;72.60;93547.53;5064333;28;20432;-72
2021/12/10 04:57:49;;;;;;;16.83;12.83;;;;;;;8.54;71.44;93556.72;5064085;28;20441;-71
2021/12/10 05:00:23;;;;;;;16.53;12.67;;;;;;;8.30;71.92;93560.81;5064055;28;20425;-72
2021/12/10 05:02:50;;;;;;;16.37;14.57;;;;;;;8.45;71.72;93563.19;5062817;28;20185;-72
2021/12/10 05:05:15;;;;;;;19.53;14.97;;;;;;;8.52;71.13;93561.34;5066986;28;20428;-72
2021/12/10 05:07:41;;;;;;;21.90;13.77;;;;;;;8.44;71.21;93556.34;5068124;28;20425;-71
2021/12/10 05:10:09;;;;;;;19.80;13.87;;;;;;;8.78;70.28;93565.59;5067747;28;20179;-71
2021/12/10 05:12:35;;;;;;;15.90;13.87;;;;;;;8.74;70.53;93565.22;5067840;28;20209;-72
2021/12/10 05:15:02;;;;;;;20.53;15.43;;;;;;;9.00;69.90;93553.03;5066255;28;20515;-71
2021/12/10 05:17:31;;;;;;;21.07;13.60;;;;;;;8.98;69.34;93563.66;5067898;28;20429;-71
2021/12/10 05:20:00;;;;;;;14.60;12.73;;;;;;;9.09;69.42;93564.00;5067792;28;20554;-72
2021/12/10 05:22:26;;;;;;;17.80;13.50;;;;;;;8.73;70.90;93549.78;5067163;28;20481;-72
2021/12/10 05:24:53;;;;;;;17.20;13.50;;;;;;;8.83;71.09;93551.94;5067279;28;20524;-72
2021/12/10 05:27:19;;;;;;;15.37;13.70;;;;;;;8.97;69.71;93550.81;5067217;28;20482;-73
2021/12/10 05:29:44;;;;;;;16.47;14.77;;;;;;;8.75;70.15;93572.03;5067351;28;20418;-72
2021/12/10 05:32:11;;;;;;;18.80;13.93;;;;;;;8.93;69.91;93575.75;5067196;28;20206;-72
2021/12/10 05:34:40;;;;;;;20.03;15.87;;;;;;;8.91;69.45;93569.94;5067289;28;20174;-72
2021/12/10 05:37:07;;;;;;;15.60;13.93;;;;;;;8.71;70.67;93563.03;5067540;28;20620;-73
2021/12/10 05:39:33;;;;;;;21.63;16.17;;;;;;;8.74;69.92;93551.38;5067238;28;20416;-72
2021/12/10 05:42:00;;;;;;;18.53;16.63;;;;;;;8.86;70.35;93548.88;5067067;28;20456;-72
2021/12/10 05:44:27;;;;;;;17.57;15.77;;;;;;;8.93;69.47;93547.84;5065955;28;20170;-72
2021/12/10 05:46:52;;;;;;;18.63;15.33;;;;;;;8.54;71.36;93547.09;5066912;28;20935;-72
2021/12/10 05:49:18;;;;;;;19.00;16.60;;;;;;;7.97;72.94;93540.88;5066929;28;20423;-72
2021/12/10 05:51:44;;;;;;;20.20;17.53;;;;;;;8.35;72.75;93542.75;5066875;28;20257;-72
2021/12/10 05:54:09;;;;;;;18.47;14.23;;;;;;;8.44;71.15;93551.13;5066743;28;20181;-72
2021/12/10 05:56:35;;;;;;;17.53;15.63;;;;;;;8.31;72.07;93534.53;5066823;28;20469;-72
2021/12/10 05:59:01;;;;;;;16.67;14.77;;;;;;;8.34;71.46;93543.75;5066884;28;20205;-71
2021/12/10 06:01:27;;;;;;;22.30;16.80;;;;;;;8.35;72.27;93533.09;5066866;28;20397;-71
2021/12/10 06:03:53;;;;;;;23.60;20.30;;;;;;;8.28;71.73;93536.75;5066850;28;20429;-72
2021/12/10 06:06:25;;;;;;;24.33;19.17;;;;;;;8.43;71.91;93533.91;5066655;28;20170;-72
2021/12/10 06:08:51;;;;;;;22.00;18.80;;;;;;;8.37;71.74;93541.53;5066525;28;20427;-72
2021/12/10 06:11:17;;;;;;;26.40;20.43;;;;;;;8.22;72.93;93533.16;5066554;28;20421;-72
2021/12/10 06:13:45;;;;;;;28.53;22.60;;;;;;;8.33;71.95;93532.53;5066287;28;20425;-73
2021/12/10 06:16:11;;;;;;;29.60;21.37;;;;;;;8.30;72.56;93545.16;5065494;28;20417;-72
2021/12/10 06:18:37;;;;;;;31.40;22.33;;;;;;;8.55;71.43;93558.31;5065694;28;20497;-72
2021/12/10 06:21:04;;;;;;;23.23;20.37;;;;;;;8.56;71.71;93552.88;5065157;28;20412;-72
2021/12/10 06:23:29;;;;;;;29.10;20.97;;;;;;;9.02;70.00;93563.25;5066589;28;20175;-71
2021/12/10 06:25:55;;;;;;;27.13;22.50;;;;;;;8.44;71.60;93548.53;5066248;28;20416;-71
2021/12/10 06:28:20;;;;;;;24.50;20.67;;;;;;;8.66;71.79;93539.38;5064693;28;20526;-71
2021/12/10 06:30:48;;;;;;;25.40;19.50;;;;;;;8.56;71.67;93544.28;5065834;28;20171;-72
2021/12/10 06:33:16;;;;;;;25.47;20.30;;;;;;;8.77;70.18;93556.19;5066344;28;20209;-71
2021/12/10 06:35:44;;;;;;;27.00;20.87;;;;;;;8.71;69.88;93541.38;5066123;28;20421;-72
2021/12/10 06:38:11;;;;;;;23.03;19.63;;;;;;;8.38;72.52;93537.91;5066489;28;20425;-72
2021/12/10 06:40:39;;;;;;;14.63;8.30;;;;;;;8.27;71.54;93551.59;5066326;28;20409;-71
2021/12/10 06:43:05;;;;;;;26.27;20.10;;;;;;;7.87;74.02;93530.88;5066323;28;20860;-72
2021/12/10 06:45:32;;;;;;;26.83;20.03;;;;;;;8.50;70.84;93521.63;5066284;28;20440;-72
2021/12/10 06:48:01;;;;;;;17.67;13.90;;;;;;;7.84;72.13;93535.72;5065884;28;20428;-70
2021/12/10 06:50:30;;;;;;;25.57;17.20;;;;;;;8.36;71.99;93539.13;5066020;28;20413;-71
2021/12/10 06:52:57;;;;;;;22.30;17.83;;;;;;;8.62;70.88;93537.41;5066013;28;20794;-72
2021/12/10 06:55:24;;;;;;;23.13;18.50;;;;;;;7.95;72.94;93522.06;5065745;28;20397;-72
2021/12/10 06:57:50;;;;;;;26.33;18.57;;;;;;;8.42;71.78;93514.06;5065647;28;20456;-72
2021/12/10 07:00:27;;;;;;;27.30;20.80;;;;;;;8.94;69.86;93536.41;5065519;28;20413;-71
2021/12/10 07:02:52;;;;;;;27.83;18.63;;;;;;;8.56;70.94;93536.44;5066122;28;20482;-71
2021/12/10 07:05:19;;;;;;;24.60;18.90;;;;;;;8.48;71.20;93547.09;5066320;28;20433;-72
2021/12/10 07:07:45;;;;;;;23.50;18.40;;;;;;;8.63;70.85;93542.41;5065882;28;20232;-71
2021/12/10 07:10:12;;;;;;;28.33;20.53;;;;;;;8.65;70.42;93550.84;5065760;28;20408;-72
2021/12/10 07:12:39;;;;;;;25.57;21.37;;;;;;;8.89;70.56;93553.69;5065914;28;20465;-72
2021/12/10 07:15:09;;;;;;;23.53;21.03;;;;;;;8.78;69.97;93535.13;5066050;28;20437;-72
2021/12/10 07:17:38;;;;;;;31.60;21.80;;;;;;;8.47;71.27;93545.53;5066371;28;20420;-72
2021/12/10 07:20:04;;;;;;;40.50;23.93;;;;;;;8.10;72.65;93555.66;5065397;28;20983;-73
2021/12/10 07:22:30;;;;;;;37.00;28.30;;;;;;;8.23;73.55;93557.41;5065662;28;20425;-72
2021/12/10 07:24:56;;;;;;;40.40;30.97;;;;;;;8.80;71.42;93550.53;5065651;28;20422;-72
2021/12/10 07:27:21;;;;;;;52.07;36.30;;;;;;;9.03;70.12;93555.22;5065368;28;20427;-72
2021/12/10 07:29:47;;;;;;;45.97;35.80;;;;;;;8.97;70.72;93545.59;5065677;28;20173;-73
2021/12/10 07:32:13;;;;;;;40.27;29.37;;;;;;;8.58;71.31;93542.25;5065451;28;20199;-72
2021/12/10 07:34:40;;;;;;;47.03;33.73;;;;;;;9.12;69.70;93525.22;5065469;28;20417;-72
2021/12/10 07:37:08;;;;;;;44.03;33.67;;;;;;;8.84;71.36;93545.69;5065349;28;20456;-72
2021/12/10 07:39:35;;;;;;;49.10;35.37;;;;;;;8.56;72.18;93544.28;5065336;28;20401;-72
2021/12/10 07:42:00;;;;;;;53.90;38.03;;;;;;;9.10;71.17;93532.47;5065276;28;20424;-72
2021/12/10 07:44:27;;;;;;;43.13;35.60;;;;;;;8.56;72.19;93531.22;5065113;28;20432;-71
2021/12/10 07:46:55;;;;;;;46.27;35.40;;;;;;;9.02;70.87;93543.16;5065176;28;20425;-72
2021/12/10 07:49:28;;;;;;;47.80;36.13;;;;;;;9.35;69.34;93542.09;5065058;28;20401;-72
2021/12/10 07:51:54;;;;;;;45.23;37.83;;;;;;;9.66;69.12;93535.22;5065074;28;21002;-72
2021/12/10 07:54:20;;;;;;;42.20;33.57;;;;;;;9.71;69.15;93537.97;5065216;28;20413;-72
2021/12/10 07:56:46;;;;;;;39.97;31.60;;;;;;;9.81;69.08;93525.22;5065095;28;20431;-73
2021/12/10 07:59:11;;;;;;;37.83;29.37;;;;;;;9.55;69.56;93521.84;5063835;28;20204;-72
2021/12/10 08:01:37;;;;;;;38.50;27.43;;;;;;;9.57;69.56;93535.47;5065161;28;20163;-72
2021/12/10 08:04:04;;;;;;;42.13;27.50;;;;;;;9.99;68.53;93534.06;5065073;28;20178;-73
2021/12/10 08:06:32;;;;;;;35.80;26.20;;;;;;;9.90;68.41;93533.53;5064748;28;20177;-72
2021/12/10 08:08:58;;;;;;;27.47;21.60;;;;;;;9.99;68.83;93528.84;5063539;28;20413;-72
2021/12/10 08:11:24;;;;;;;29.43;25.07;;;;;;;10.02;68.90;93541.47;5064687;28;20405;-72
2021/12/10 08:13:50;;;;;;;26.90;22.60;;;;;;;9.99;68.89;93541.91;5064696;28;20409;-72
2021/12/10 08:16:16;;;;;;;27.17;22.77;;;;;;;10.29;68.07;93532.31;5065274;28;20435;-72
2021/12/10 08:18:45;;;;;;;31.60;22.67;;;;;;;10.47;67.47;93554.22;5064778;28;20225;-72
2021/12/10 08:21:10;;;;;;;33.83;24.10;;;;;;;10.65;67.86;93550.81;5064726;28;20436;-73
2021/12/10 08:23:37;;;;;;;29.40;22.67;;;;;;;10.93;66.81;93539.75;5064462;28;20429;-73
2021/12/10 08:26:04;;;;;;;28.97;22.20;;;;;;;10.80;66.90;93542.56;5064671;28;20254;-72
2021/12/10 08:28:32;;;;;;;26.90;21.43;;;;;;;10.90;66.62;93548.03;5064706;28;20439;-73
2021/12/10 08:30:59;;;;;;;27.10;22.30;;;;;;;10.86;66.60;93539.03;5064722;28;20417;-73
2021/12/10 08:33:27;;;;;;;27.23;23.07;;;;;;;10.79;66.68;93535.72;5064556;28;20457;-73
2021/12/10 08:35:56;;;;;;;35.10;30.40;;;;;;;10.31;67.78;93545.97;5064185;28;20947;-73
2021/12/10 08:38:22;;;;;;;35.13;29.77;;;;;;;10.68;66.29;93538.09;5064954;28;20499;-72
2021/12/10 08:40:54;;;;;;;37.33;30.17;;;;;;;10.62;66.93;93535.53;5068693;28;20472;-72
2021/12/10 08:43:20;;;;;;;38.93;32.40;;;;;;;10.88;66.83;93529.13;5068200;28;20174;-73
2021/12/10 08:45:46;;;;;;;42.43;34.23;;;;;;;10.96;66.63;93520.16;5068184;28;20405;-72
2021/12/10 08:48:11;;;;;;;48.63;37.43;;;;;;;11.02;65.96;93530.56;5068223;28;20175;-75
2021/12/10 08:50:39;;;;;;;47.43;42.13;;;;;;;10.66;67.25;93532.28;5068180;28;20224;-74
2021/12/10 08:53:09;;;;;;;56.03;47.83;;;;;;;10.14;69.22;93531.88;5068380;28;20210;-73
2021/12/10 08:55:36;;;;;;;95.70;72.87;;;;;;;10.08;68.56;93530.16;5068116;28;20417;-73
2021/12/10 08:58:05;;;;;;;105.33;79.70;;;;;;;10.18;67.97;93540.88;5068315;28;20421;-73
2021/12/10 09:00:31;;;;;;;111.63;81.23;;;;;;;10.23;67.27;93532.38;5068251;28;20409;-73
2021/12/10 09:02:57;;;;;;;97.77;74.20;;;;;;;10.21;67.50;93532.59;5068576;28;20432;-73
2021/12/10 09:05:24;;;;;;;103.67;72.60;;;;;;;9.70;69.48;93528.53;5068137;28;20413;-71
2021/12/10 09:07:49;;;;;;;96.30;65.60;;;;;;;8.60;72.21;93538.41;5066229;28;20435;-71
2021/12/10 09:10:21;;;;;;;101.07;73.03;;;;;;;9.11;70.33;93552.34;5066451;28;20496;-69
2021/12/10 09:12:47;;;;;;;104.33;67.97;;;;;;;8.85;72.50;93545.50;5067712;28;20287;-72
2021/12/10 09:15:18;;;;;;;133.30;85.20;;;;;;;8.98;70.90;93536.78;5067706;28;20432;-72
2021/12/10 09:17:45;;;;;;;144.77;97.93;;;;;;;9.49;69.70;93534.97;5070223;28;20423;-72
2021/12/10 09:20:20;;;;;;;144.53;95.93;;;;;;;9.82;68.84;93512.94;5068613;28;20453;-72
2021/12/10 09:22:47;;;;;;;131.60;87.80;;;;;;;9.67;69.51;93505.47;5068013;28;20775;-71
2021/12/10 09:25:15;;;;;;;129.90;86.47;;;;;;;9.85;69.08;93531.59;5066433;28;20424;-72
2021/12/10 09:27:41;;;;;;;149.33;90.90;;;;;;;9.19;70.91;93539.03;5067709;28;20417;-72
2021/12/10 09:30:10;;;;;;;133.77;93.03;;;;;;;9.36;70.46;93539.28;5067689;28;20405;-72
2021/12/10 09:32:36;;;;;;;155.60;99.30;;;;;;;9.75;68.70;93515.59;5066331;28;20222;-71
2021/12/10 09:35:06;;;;;;;124.50;73.00;;;;;;;9.95;68.44;93526.66;5067483;28;20411;-73
2021/12/10 09:37:34;;;;;;;118.77;74.53;;;;;;;9.33;70.48;93507.59;5066038;28;20187;-73
2021/12/10 09:39:59;;;;;;;113.83;71.47;;;;;;;9.67;68.71;93485.34;5065814;28;20420;-72
2021/12/10 09:42:25;;;;;;;98.90;63.07;;;;;;;9.28;70.35;93497.78;5067216;28;20417;-73
2021/12/10 09:44:53;;;;;;;93.17;61.47;;;;;;;9.80;69.38;93491.47;5066414;28;20171;-72
2021/12/10 09:47:20;;;;;;;89.67;59.43;;;;;;;10.41;67.73;93487.13;5067409;28;20182;-71
2021/12/10 09:49:51;;;;;;;89.63;55.70;;;;;;;10.66;66.71;93487.78;5067256;28;20409;-73
2021/12/10 09:52:19;;;;;;;74.47;49.10;;;;;;;9.97;67.16;93495.88;5067200;28;20465;-72
2021/12/10 09:54:46;;;;;;;79.73;53.37;;;;;;;10.29;67.50;93472.16;5067153;28;20413;-73
2021/12/10 09:57:17;;;;;;;82.10;45.23;;;;;;;10.19;68.09;93487.59;5067270;28;20429;-73
2021/12/10 09:59:44;;;;;;;88.17;57.60;;;;;;;9.67;71.82;93484.56;5066996;28;20397;-73
2021/12/10 10:02:12;;;;;;;95.23;56.23;;;;;;;10.23;68.58;93480.91;5067314;28;20421;-72
2021/12/10 10:04:45;;;;;;;91.80;55.30;;;;;;;9.64;70.90;93479.78;5067101;28;20923;-72
2021/12/10 10:07:14;;;;;;;88.20;52.50;;;;;;;10.54;68.11;93472.03;5066919;28;20425;-72
2021/12/10 10:09:43;;;;;;;80.20;53.67;;;;;;;10.54;68.27;93455.56;5066775;28;20417;-72
2021/12/10 10:12:31;;;;;;;87.60;53.00;;;;;;;11.03;67.88;93448.38;5065412;28;20479;-72
2021/12/10 10:15:02;;;;;;;87.77;60.03;;;;;;;10.82;70.19;93456.78;5067308;28;20391;-73
2021/12/10 10:17:28;;;;;;;83.07;51.90;;;;;;;11.53;66.22;93447.91;5066883;28;20421;-72
2021/12/10 10:19:54;;;;;;;68.73;48.57;;;;;;;10.53;67.39;93459.22;5066285;28;20539;-72
2021/12/10 10:22:25;;;;;;;76.37;54.03;;;;;;;11.52;67.26;93450.75;5065164;28;20183;-72
2021/12/10 10:24:52;;;;;;;76.17;52.07;;;;;;;11.89;65.46;93451.31;5065393;28;20728;-72
2021/12/10 10:27:23;;;;;;;75.00;50.30;;;;;;;12.23;63.52;93456.66;5066797;28;20482;-72
2021/12/10 10:29:55;;;;;;;73.27;51.53;;;;;;;12.01;63.80;93453.88;5066485;28;20401;-72
2021/12/10 10:32:25;;;;;;;71.07;51.30;;;;;;;12.40;63.46;93434.94;5066440;28;20460;-72
2021/12/10 10:34:58;;;;;;;71.23;51.40;;;;;;;12.53;62.08;93434.63;5066323;28;20412;-72
2021/12/10 10:37:23;;;;;;;64.57;48.33;;;;;;;12.54;62.48;93425.75;5066234;28;20514;-72
2021/12/10 10:39:49;;;;;;;62.07;47.03;;;;;;;12.97;61.38;93420.91;5064730;28;20496;-73
2021/12/10 10:42:24;;;;;;;60.13;46.17;;;;;;;13.35;59.42;93408.88;5066271;28;20171;-72
2021/12/10 10:44:51;;;;;;;43.50;35.20;;;;;;;12.65;60.19;93417.00;5066450;28;20435;-72
2021/12/10 10:47:22;;;;;;;68.97;41.70;;;;;;;12.02;62.05;93428.47;5066479;28;20421;-73
2021/12/10 10:49:51;;;;;;;55.10;40.63;;;;;;;11.19;64.92;93414.69;5066063;28;20484;-72
2021/12/10 10:52:20;;;;;;;55.93;39.33;;;;;;;11.59;63.83;93413.94;5065838;28;20467;-73
2021/12/10 10:54:48;;;;;;;50.53;38.90;;;;;;;11.39;64.78;93417.75;5066037;28;20465;-72
2021/12/10 10:57:26;;;;;;;60.77;40.63;;;;;;;11.62;63.82;93418.75;5066003;28;20413;-72
2021/12/10 10:59:56;;;;;;;60.77;43.27;;;;;;;11.65;63.69;93413.84;5066148;28;20393;-72
2021/12/10 11:02:26;;;;;;;51.30;40.33;;;;;;;11.53;64.50;93416.47;5065722;28;20433;-73
2021/12/10 11:04:52;;;;;;;57.17;40.40;;;;;;;11.89;62.49;93419.84;5066081;28;20420;-73
2021/12/10 11:07:24;;;;;;;51.77;42.30;;;;;;;11.97;62.48;93415.25;5066012;28;20512;-73
2021/12/10 11:09:55;;;;;;;45.90;33.50;;;;;;;11.83;62.25;93412.88;5065493;28;20409;-72
2021/12/10 11:12:31;;;;;;;56.77;41.00;;;;;;;11.29;65.36;93413.09;5066993;28;20464;-72
2021/12/10 11:14:59;;;;;;;48.73;38.20;;;;;;;11.44;64.81;93411.81;5066166;28;20435;-73
2021/12/10 11:17:38;;;;;;;48.53;32.67;;;;;;;11.31;64.49;93423.34;5067086;28;20421;-72
2021/12/10 11:20:10;;;;;;;49.50;37.43;;;;;;;11.25;64.86;93413.75;5066649;28;20467;-72
2021/12/10 11:22:45;;;;;;;56.40;39.17;;;;;;;11.87;63.41;93413.19;5066944;28;20781;-72
2021/12/10 11:25:18;;;;;;;46.73;34.10;;;;;;;11.56;63.80;93424.91;5066559;28;20816;-73
2021/12/10 11:27:45;;;;;;;47.73;38.10;;;;;;;11.32;64.62;93417.06;5066090;28;20428;-73
2021/12/10 11:30:13;;;;;;;51.77;34.10;;;;;;;10.99;65.63;93418.44;5065214;28;20443;-73
2021/12/10 11:32:49;;;;;;;51.07;40.20;;;;;;;11.77;64.23;93405.94;5066850;28;20468;-73
2021/12/10 11:35:25;;;;;;;52.10;39.87;;;;;;;12.18;62.84;93401.50;5066380;28;20413;-73
2021/12/10 11:37:58;;;;;;;51.37;42.37;;;;;;;12.36;62.43;93394.47;5066546;28;20436;-73